ARKANSAS RIVER NAVIGATION REPORT
  LITTLE ROCK DISTRICT - U.S. ARMY CORPS OF ENGINEERS
  GENERATED: 20 AUG 2017 @ 18:05
 
  NOTE: These data are not guaranteed to be valid or correct.
        RELEASES AND FLOWS ARE IN THOUSANDS OF CFS
  _____________________________________________________________________________
 
                  19AUG     19AUG      19AUG           20AUG          20AUG
                  @1200     @2400     AVERAGE      LATEST OBSERVED    PRECIP.
                  HOURS     HOURS      FLOW         DATA AND TIME     (7A-7A)
  _____________________________________________________________________________
 
  LD13 HW-ELEV    391.22    391.35                391.73  @  17:00       .02
  LD13 TW-ELEV    374.25    373.90                374.05  @  17:00
  LD13 RELEASE     36.3      32.6      34.6        32.6   @  17:00
 
  OZA.L&D HW-ELEV 371.61    372.41                372.26  @  17:00      0.00
  OZA.L&D TW-ELEV 342.52    339.40                341.35  @  17:00
  OZA.L&D RELEASE  44.7      28.3      37.9        37.8   @  17:00
 
  DRD.L&D HW-ELEV 337.59    337.64                337.85  @  17:00      0.00
  DRD.L&D TW-ELEV 291.70    287.29                288.55  @  17:00
  DRD.L&D RELEASE  68.8      27.4      61.7        40.6   @  17:00
 
  LD09 HW-ELEV    284.76    285.30                286.56  @  17:00       .01
  LD09 TW-ELEV    273.42    269.68                267.57  @  17:00
  LD09 RELEASE     65.1      41.2      61.1        31.0   @  17:00
 
  LD08 HW-ELEV    265.51    264.83                265.35  @  17:00       .65
  LD08 TW-ELEV    260.62    257.72                252.93  @  17:00
  LD08 RELEASE     85.3      66.3      87.3        43.0   @  17:00
 
  LD07 HW-ELEV    248.85    248.73                249.18  @  17:00      0.00
  LD07 TW-ELEV    233.88    232.77                231.66  @  17:00
  LD07 RELEASE     88.5      69.2      92.7        36.4   @  17:00
 
  LD06 HW-ELEV    224.66    230.73                231.06  @  17:00      0.00
  LD06 TW-ELEV    220.74    219.52                214.60  @  17:00
  LD06 RELEASE      -.1       -.1       -.1         -.1   @  17:00
 
  LD05 HW-ELEV    213.18    213.26                213.87  @  17:00      0.00
  LD05 TW-ELEV    202.36    200.42                196.02  @  17:00
  LD05 RELEASE     94.0      78.1      93.6        26.4   @  17:00
 
  LD04 HW-ELEV    195.80    195.50                195.80  @  17:00      0.00
  LD04 TW-ELEV    188.87    187.47                183.04  @  17:00
  LD04 RELEASE    106.8      92.3                  27.8   @  17:00
 
  LD03 HW-ELEV    181.57    181.62                182.22  @  17:00      0.00
  LD03 TW-ELEV    176.29    175.04                167.02  @  17:00
  LD03 RELEASE    110.3     101.4     106.4        25.1   @  17:00
 
  L02 HW-ELEV     161.61    161.85                156.04  @  17:00      0.00
 
  D02 HW-ELEV     161.75    161.77                162.32  @  17:00      0.00
  D02 TW-ELEV     135.78    138.47                137.15  @  17:00
  D02 RELEASE      92.9      98.8      96.1        64.9   @  17:00
 
  L01 TW-ELEV     126.05    125.94                125.77  @  17:00      0.00
 
  MPLD HW-ELEV    124.19    124.03                123.76  @  17:00      0.00	
  MPLD TW-ELEV    123.99    123.83                123.52  @  17:00
 
  WREC DIFF.        1.86      1.91                  2.01
  CLARENDON FLOW   28.21     28.39     28.19       28.64  @  17:00
  HELENA STAGE     10.21      9.91                  9.35  @  17:00
  CAIRO STAGE      17.50     17.16                 16.10  @  17:00
  _____________________________________________________________________________